sensor_id;sensor_type;location;lat;lon;timestamp;pressure;altitude;pressure_sealevel;temperature;humidity
40245;BME280;25963;42.694;23.600;2023-04-21T00:01:11;94796.03;;;10.06;92.48
40245;BME280;25963;42.694;23.600;2023-04-21T00:03:37;94797.28;;;10.03;93.11
40245;BME280;25963;42.694;23.600;2023-04-21T00:06:03;94798.38;;;10.14;93.04
40245;BME280;25963;42.694;23.600;2023-04-21T00:08:30;94781.94;;;10.00;93.06
40245;BME280;25963;42.694;23.600;2023-04-21T00:10:56;94808.09;;;10.14;92.77
40245;BME280;25963;42.694;23.600;2023-04-21T00:13:21;94809.47;;;10.16;92.06
40245;BME280;25963;42.694;23.600;2023-04-21T00:15:48;94785.59;;;9.81;92.30
40245;BME280;25963;42.694;23.600;2023-04-21T00:18:13;94798.34;;;9.84;92.83
40245;BME280;25963;42.694;23.600;2023-04-21T00:20:39;94786.88;;;9.78;92.41
40245;BME280;25963;42.694;23.600;2023-04-21T00:23:04;94808.94;;;9.96;92.64
40245;BME280;25963;42.694;23.600;2023-04-21T00:25:30;94804.28;;;9.61;94.86
40245;BME280;25963;42.694;23.600;2023-04-21T00:27:55;94808.31;;;9.82;93.37
40245;BME280;25963;42.694;23.600;2023-04-21T00:30:21;94800.53;;;9.69;91.93
40245;BME280;25963;42.694;23.600;2023-04-21T00:32:46;94812.19;;;9.61;92.07
40245;BME280;25963;42.694;23.600;2023-04-21T00:35:12;94789.22;;;9.31;94.15
40245;BME280;25963;42.694;23.600;2023-04-21T00:37:37;94789.81;;;9.08;95.88
40245;BME280;25963;42.694;23.600;2023-04-21T00:40:04;94798.78;;;9.26;95.50
40245;BME280;25963;42.694;23.600;2023-04-21T00:42:30;94789.66;;;9.28;95.36
40245;BME280;25963;42.694;23.600;2023-04-21T00:44:56;94788.53;;;9.36;95.08
40245;BME280;25963;42.694;23.600;2023-04-21T00:47:21;94773.84;;;9.28;94.25
40245;BME280;25963;42.694;23.600;2023-04-21T00:49:47;94795.56;;;9.42;93.52
40245;BME280;25963;42.694;23.600;2023-04-21T00:52:13;94791.03;;;9.49;93.24
40245;BME280;25963;42.694;23.600;2023-04-21T00:54:41;94766.03;;;9.22;92.34
40245;BME280;25963;42.694;23.600;2023-04-21T00:57:07;94785.63;;;9.26;93.22
40245;BME280;25963;42.694;23.600;2023-04-21T00:59:33;94791.81;;;9.13;94.12
40245;BME280;25963;42.694;23.600;2023-04-21T01:01:59;94774.19;;;8.95;93.89
40245;BME280;25963;42.694;23.600;2023-04-21T01:04:24;94779.44;;;8.95;93.31
40245;BME280;25963;42.694;23.600;2023-04-21T01:06:50;94791.88;;;9.06;93.14
40245;BME280;25963;42.694;23.600;2023-04-21T01:09:16;94781.97;;;8.83;93.47
40245;BME280;25963;42.694;23.600;2023-04-21T01:11:42;94771.53;;;8.70;94.53
40245;BME280;25963;42.694;23.600;2023-04-21T01:14:24;94787.59;;;8.62;94.67
40245;BME280;25963;42.694;23.600;2023-04-21T01:16:50;94766.09;;;8.47;94.70
40245;BME280;25963;42.694;23.600;2023-04-21T01:19:15;94770.47;;;8.53;95.11
40245;BME280;25963;42.694;23.600;2023-04-21T01:21:41;94781.63;;;8.73;94.50
40245;BME280;25963;42.694;23.600;2023-04-21T01:24:07;94783.41;;;8.79;94.46
40245;BME280;25963;42.694;23.600;2023-04-21T01:26:32;94788.63;;;8.86;94.31
40245;BME280;25963;42.694;23.600;2023-04-21T01:28:57;94761.41;;;8.74;94.03
40245;BME280;25963;42.694;23.600;2023-04-21T01:31:23;94784.47;;;8.72;94.51
40245;BME280;25963;42.694;23.600;2023-04-21T01:33:48;94737.41;;;8.38;95.31
40245;BME280;25963;42.694;23.600;2023-04-21T01:36:14;94771.53;;;8.70;95.56
40245;BME280;25963;42.694;23.600;2023-04-21T01:38:41;94765.53;;;8.31;97.46
40245;BME280;25963;42.694;23.600;2023-04-21T01:41:08;94776.13;;;8.56;96.47
40245;BME280;25963;42.694;23.600;2023-04-21T01:43:34;94780.44;;;8.69;95.78
40245;BME280;25963;42.694;23.600;2023-04-21T01:46:00;94780.09;;;8.65;94.82
40245;BME280;25963;42.694;23.600;2023-04-21T01:48:25;94765.00;;;8.54;94.53
40245;BME280;25963;42.694;23.600;2023-04-21T01:50:51;94777.97;;;8.49;94.78
40245;BME280;25963;42.694;23.600;2023-04-21T01:53:16;94777.09;;;8.55;94.08
40245;BME280;25963;42.694;23.600;2023-04-21T01:55:42;94783.13;;;8.31;95.89
40245;BME280;25963;42.694;23.600;2023-04-21T01:58:07;94781.94;;;8.27;96.06
40245;BME280;25963;42.694;23.600;2023-04-21T02:00:32;94778.84;;;8.36;94.53
40245;BME280;25963;42.694;23.600;2023-04-21T02:02:58;94784.53;;;8.33;94.77
40245;BME280;25963;42.694;23.600;2023-04-21T02:05:23;94778.03;;;8.36;94.46
40245;BME280;25963;42.694;23.600;2023-04-21T02:07:49;94787.13;;;8.40;94.41
40245;BME280;25963;42.694;23.600;2023-04-21T02:10:14;94764.22;;;8.15;93.97
40245;BME280;25963;42.694;23.600;2023-04-21T02:12:40;94779.75;;;8.23;94.76
40245;BME280;25963;42.694;23.600;2023-04-21T02:15:06;94777.31;;;8.22;95.46
40245;BME280;25963;42.694;23.600;2023-04-21T02:17:32;94767.03;;;7.82;98.26
40245;BME280;25963;42.694;23.600;2023-04-21T02:19:57;94779.47;;;8.00;98.61
40245;BME280;25963;42.694;23.600;2023-04-21T02:22:23;94777.16;;;8.10;98.34
40245;BME280;25963;42.694;23.600;2023-04-21T02:24:49;94782.56;;;8.22;97.01
40245;BME280;25963;42.694;23.600;2023-04-21T02:27:15;94777.06;;;8.30;96.36
40245;BME280;25963;42.694;23.600;2023-04-21T02:29:41;94763.00;;;8.18;95.41
40245;BME280;25963;42.694;23.600;2023-04-21T02:32:07;94779.56;;;8.18;95.22
40245;BME280;25963;42.694;23.600;2023-04-21T02:34:32;94752.97;;;8.01;95.49
40245;BME280;25963;42.694;23.600;2023-04-21T02:36:58;94767.78;;;8.28;94.85
40245;BME280;25963;42.694;23.600;2023-04-21T02:39:24;94771.06;;;8.23;94.17
40245;BME280;25963;42.694;23.600;2023-04-21T02:41:50;94773.03;;;8.28;93.57
40245;BME280;25963;42.694;23.600;2023-04-21T02:44:15;94761.47;;;8.04;93.74
40245;BME280;25963;42.694;23.600;2023-04-21T02:46:41;94778.34;;;8.21;92.97
40245;BME280;25963;42.694;23.600;2023-04-21T02:49:07;94767.88;;;8.14;92.45
40245;BME280;25963;42.694;23.600;2023-04-21T02:51:32;94784.34;;;8.28;91.19
40245;BME280;25963;42.694;23.600;2023-04-21T02:53:58;94763.41;;;7.76;92.08
40245;BME280;25963;42.694;23.600;2023-04-21T02:56:23;94784.94;;;7.92;92.64
40245;BME280;25963;42.694;23.600;2023-04-21T02:58:49;94773.50;;;7.80;93.15
40245;BME280;25963;42.694;23.600;2023-04-21T03:01:14;94778.94;;;7.85;92.34
40245;BME280;25963;42.694;23.600;2023-04-21T03:03:40;94756.84;;;7.61;92.89
40245;BME280;25963;42.694;23.600;2023-04-21T03:06:06;94762.97;;;7.86;92.46
40245;BME280;25963;42.694;23.600;2023-04-21T03:08:32;94780.66;;;7.66;93.24
40245;BME280;25963;42.694;23.600;2023-04-21T03:10:57;94775.72;;;7.83;92.27
40245;BME280;25963;42.694;23.600;2023-04-21T03:13:23;94785.06;;;7.72;91.68
40245;BME280;25963;42.694;23.600;2023-04-21T03:15:49;94772.97;;;7.64;90.95
40245;BME280;25963;42.694;23.600;2023-04-21T03:18:14;94757.88;;;7.46;91.82
40245;BME280;25963;42.694;23.600;2023-04-21T03:20:40;94780.91;;;7.44;91.99
40245;BME280;25963;42.694;23.600;2023-04-21T03:23:06;94778.28;;;7.51;91.34
40245;BME280;25963;42.694;23.600;2023-04-21T03:25:31;94785.91;;;7.59;91.09
40245;BME280;25963;42.694;23.600;2023-04-21T03:27:57;94770.22;;;7.32;90.73
40245;BME280;25963;42.694;23.600;2023-04-21T03:30:22;94786.94;;;7.51;90.76
40245;BME280;25963;42.694;23.600;2023-04-21T03:32:51;94798.84;;;7.54;90.70
40245;BME280;25963;42.694;23.600;2023-04-21T03:35:16;94798.06;;;7.47;90.24
40245;BME280;25963;42.694;23.600;2023-04-21T03:37:42;94778.31;;;7.31;90.15
40245;BME280;25963;42.694;23.600;2023-04-21T03:40:08;94769.91;;;7.16;90.12
40245;BME280;25963;42.694;23.600;2023-04-21T03:42:34;94788.44;;;7.21;90.59
40245;BME280;25963;42.694;23.600;2023-04-21T03:45:05;94782.41;;;7.07;92.29
40245;BME280;25963;42.694;23.600;2023-04-21T03:47:30;94809.81;;;7.31;91.42
40245;BME280;25963;42.694;23.600;2023-04-21T03:49:56;94823.72;;;7.31;91.30
40245;BME280;25963;42.694;23.600;2023-04-21T03:52:22;94804.13;;;7.41;91.11
40245;BME280;25963;42.694;23.600;2023-04-21T03:54:48;94826.09;;;7.53;90.50
40245;BME280;25963;42.694;23.600;2023-04-21T03:57:13;94826.31;;;7.45;90.23
40245;BME280;25963;42.694;23.600;2023-04-21T03:59:39;94825.50;;;7.44;91.97
40245;BME280;25963;42.694;23.600;2023-04-21T04:02:05;94833.19;;;7.46;92.43
40245;BME280;25963;42.694;23.600;2023-04-21T04:04:30;94809.56;;;7.46;92.26
40245;BME280;25963;42.694;23.600;2023-04-21T04:06:56;94815.78;;;7.58;92.04
40245;BME280;25963;42.694;23.600;2023-04-21T04:09:22;94825.75;;;7.29;94.22
40245;BME280;25963;42.694;23.600;2023-04-21T04:11:47;94827.53;;;7.36;94.06
40245;BME280;25963;42.694;23.600;2023-04-21T04:14:13;94818.72;;;7.30;93.46
40245;BME280;25963;42.694;23.600;2023-04-21T04:16:38;94810.00;;;7.36;93.04
40245;BME280;25963;42.694;23.600;2023-04-21T04:19:04;94798.06;;;7.47;92.68
40245;BME280;25963;42.694;23.600;2023-04-21T04:21:29;94825.03;;;7.74;92.23
40245;BME280;25963;42.694;23.600;2023-04-21T04:23:56;94842.94;;;7.97;93.07
40245;BME280;25963;42.694;23.600;2023-04-21T04:26:23;94844.25;;;8.13;93.40
40245;BME280;25963;42.694;23.600;2023-04-21T04:28:50;94845.00;;;8.27;92.99
40245;BME280;25963;42.694;23.600;2023-04-21T04:31:16;94840.44;;;8.54;93.00
40245;BME280;25963;42.694;23.600;2023-04-21T04:33:44;94857.09;;;8.73;92.08
40245;BME280;25963;42.694;23.600;2023-04-21T04:36:10;94818.84;;;9.02;92.43
40245;BME280;25963;42.694;23.600;2023-04-21T04:38:38;94845.63;;;9.97;88.44
40245;BME280;25963;42.694;23.600;2023-04-21T04:41:04;94856.34;;;11.05;83.33
40245;BME280;25963;42.694;23.600;2023-04-21T04:43:30;94852.69;;;11.88;77.76
40245;BME280;25963;42.694;23.600;2023-04-21T04:46:02;94834.38;;;12.67;73.67
40245;BME280;25963;42.694;23.600;2023-04-21T04:48:27;94840.59;;;13.57;70.09
40245;BME280;25963;42.694;23.600;2023-04-21T04:50:53;94853.25;;;14.33;65.42
40245;BME280;25963;42.694;23.600;2023-04-21T04:53:18;94849.88;;;14.92;62.67
40245;BME280;25963;42.694;23.600;2023-04-21T04:55:44;94851.59;;;15.40;60.75
40245;BME280;25963;42.694;23.600;2023-04-21T04:58:11;94859.13;;;15.86;57.20
40245;BME280;25963;42.694;23.600;2023-04-21T05:00:36;94850.38;;;15.90;55.68
40245;BME280;25963;42.694;23.600;2023-04-21T05:03:03;94844.25;;;16.53;54.28
40245;BME280;25963;42.694;23.600;2023-04-21T05:05:28;94828.25;;;16.53;52.60
40245;BME280;25963;42.694;23.600;2023-04-21T05:07:53;94839.50;;;16.75;52.08
40245;BME280;25963;42.694;23.600;2023-04-21T05:10:19;94836.63;;;17.07;51.63
40245;BME280;25963;42.694;23.600;2023-04-21T05:12:44;94843.84;;;17.32;51.97
40245;BME280;25963;42.694;23.600;2023-04-21T05:15:10;94823.81;;;17.66;50.16
40245;BME280;25963;42.694;23.600;2023-04-21T05:17:35;94838.75;;;17.67;48.88
40245;BME280;25963;42.694;23.600;2023-04-21T05:20:06;94825.44;;;17.51;50.27
40245;BME280;25963;42.694;23.600;2023-04-21T05:22:36;94840.63;;;17.87;50.11
40245;BME280;25963;42.694;23.600;2023-04-21T05:25:02;94845.78;;;18.43;49.11
40245;BME280;25963;42.694;23.600;2023-04-21T05:27:27;94836.50;;;18.80;48.73
40245;BME280;25963;42.694;23.600;2023-04-21T05:29:53;94836.97;;;19.26;46.86
40245;BME280;25963;42.694;23.600;2023-04-21T05:32:19;94825.81;;;19.53;46.49
40245;BME280;25963;42.694;23.600;2023-04-21T05:34:45;94828.22;;;19.84;45.92
40245;BME280;25963;42.694;23.600;2023-04-21T05:37:10;94827.31;;;20.18;44.64
40245;BME280;25963;42.694;23.600;2023-04-21T05:39:38;94824.81;;;20.45;43.70
40245;BME280;25963;42.694;23.600;2023-04-21T05:42:04;94826.19;;;20.67;43.97
40245;BME280;25963;42.694;23.600;2023-04-21T05:44:29;94824.16;;;20.96;45.68
40245;BME280;25963;42.694;23.600;2023-04-21T05:46:55;94818.94;;;21.24;41.96
40245;BME280;25963;42.694;23.600;2023-04-21T05:49:20;94823.38;;;21.48;42.79
40245;BME280;25963;42.694;23.600;2023-04-21T05:51:46;94824.50;;;21.28;43.55
40245;BME280;25963;42.694;23.600;2023-04-21T05:54:11;94817.31;;;21.23;43.14
40245;BME280;25963;42.694;23.600;2023-04-21T05:56:37;94811.97;;;21.23;43.90
40245;BME280;25963;42.694;23.600;2023-04-21T05:59:02;94821.06;;;21.60;44.22
40245;BME280;25963;42.694;23.600;2023-04-21T06:01:28;94805.66;;;21.79;45.37
40245;BME280;25963;42.694;23.600;2023-04-21T06:03:53;94815.59;;;21.65;43.95
40245;BME280;25963;42.694;23.600;2023-04-21T06:06:19;94814.28;;;21.62;44.05
40245;BME280;25963;42.694;23.600;2023-04-21T06:08:44;94814.75;;;21.18;44.05
40245;BME280;25963;42.694;23.600;2023-04-21T06:11:09;94801.06;;;21.33;45.35
40245;BME280;25963;42.694;23.600;2023-04-21T06:13:35;94808.91;;;21.62;45.04
40245;BME280;25963;42.694;23.600;2023-04-21T06:16:00;94816.88;;;21.68;45.16
40245;BME280;25963;42.694;23.600;2023-04-21T06:18:26;94817.88;;;21.72;43.89
40245;BME280;25963;42.694;23.600;2023-04-21T06:20:53;94821.47;;;21.15;45.94
40245;BME280;25963;42.694;23.600;2023-04-21T06:23:19;94818.75;;;21.34;44.12
40245;BME280;25963;42.694;23.600;2023-04-21T06:25:45;94818.66;;;21.07;47.37
40245;BME280;25963;42.694;23.600;2023-04-21T06:28:11;94821.81;;;21.28;46.57
40245;BME280;25963;42.694;23.600;2023-04-21T06:30:36;94824.03;;;21.07;45.81
40245;BME280;25963;42.694;23.600;2023-04-21T06:33:02;94821.91;;;20.85;47.27
40245;BME280;25963;42.694;23.600;2023-04-21T06:35:28;94793.75;;;20.25;49.09
40245;BME280;25963;42.694;23.600;2023-04-21T06:37:54;94830.22;;;19.39;49.76
40245;BME280;25963;42.694;23.600;2023-04-21T06:40:20;94831.63;;;18.92;52.43
40245;BME280;25963;42.694;23.600;2023-04-21T06:42:45;94819.50;;;19.05;53.67
40245;BME280;25963;42.694;23.600;2023-04-21T06:45:11;94821.50;;;18.89;55.44
40245;BME280;25963;42.694;23.600;2023-04-21T06:47:36;94811.03;;;18.92;54.14
40245;BME280;25963;42.694;23.600;2023-04-21T06:50:02;94822.41;;;19.08;54.61
40245;BME280;25963;42.694;23.600;2023-04-21T06:52:27;94819.91;;;19.22;54.94
40245;BME280;25963;42.694;23.600;2023-04-21T06:54:53;94821.41;;;18.55;52.51
40245;BME280;25963;42.694;23.600;2023-04-21T06:57:18;94809.31;;;18.08;52.87
40245;BME280;25963;42.694;23.600;2023-04-21T06:59:43;94819.06;;;18.43;54.71
40245;BME280;25963;42.694;23.600;2023-04-21T07:02:09;94822.66;;;18.73;54.68
40245;BME280;25963;42.694;23.600;2023-04-21T07:04:34;94812.16;;;18.32;54.92
40245;BME280;25963;42.694;23.600;2023-04-21T07:07:00;94808.06;;;18.55;55.67
40245;BME280;25963;42.694;23.600;2023-04-21T07:09:25;94792.59;;;18.46;55.89
40245;BME280;25963;42.694;23.600;2023-04-21T07:11:53;94810.28;;;18.37;54.44
40245;BME280;25963;42.694;23.600;2023-04-21T07:14:19;94811.44;;;18.11;55.13
40245;BME280;25963;42.694;23.600;2023-04-21T07:16:45;94807.94;;;18.25;56.57
40245;BME280;25963;42.694;23.600;2023-04-21T07:19:10;94777.91;;;18.49;55.02
40245;BME280;25963;42.694;23.600;2023-04-21T07:21:35;94781.16;;;18.85;54.91
40245;BME280;25963;42.694;23.600;2023-04-21T07:24:02;94797.16;;;19.25;58.59
40245;BME280;25963;42.694;23.600;2023-04-21T07:26:27;94802.47;;;19.30;55.19
40245;BME280;25963;42.694;23.600;2023-04-21T07:28:53;94781.69;;;19.22;54.70
40245;BME280;25963;42.694;23.600;2023-04-21T07:31:20;94803.53;;;19.29;55.65
40245;BME280;25963;42.694;23.600;2023-04-21T07:33:45;94796.31;;;18.95;54.53
40245;BME280;25963;42.694;23.600;2023-04-21T07:36:11;94793.41;;;19.55;52.70
40245;BME280;25963;42.694;23.600;2023-04-21T07:38:36;94793.09;;;19.91;54.66
40245;BME280;25963;42.694;23.600;2023-04-21T07:41:03;94798.66;;;19.70;54.39
40245;BME280;25963;42.694;23.600;2023-04-21T07:43:28;94798.25;;;19.82;54.75
40245;BME280;25963;42.694;23.600;2023-04-21T07:45:55;94778.38;;;19.88;56.97
40245;BME280;25963;42.694;23.600;2023-04-21T07:48:21;94781.56;;;20.14;54.04
40245;BME280;25963;42.694;23.600;2023-04-21T07:50:46;94790.53;;;20.04;53.81
40245;BME280;25963;42.694;23.600;2023-04-21T07:53:12;94792.22;;;20.62;55.40
40245;BME280;25963;42.694;23.600;2023-04-21T07:55:37;94799.78;;;20.79;53.58
40245;BME280;25963;42.694;23.600;2023-04-21T07:58:03;94784.63;;;20.45;54.71
40245;BME280;25963;42.694;23.600;2023-04-21T08:00:29;94780.97;;;20.41;53.80
40245;BME280;25963;42.694;23.600;2023-04-21T08:02:54;94799.38;;;20.67;50.86
40245;BME280;25963;42.694;23.600;2023-04-21T08:05:20;94800.81;;;20.40;52.30
40245;BME280;25963;42.694;23.600;2023-04-21T08:07:46;94789.75;;;21.04;53.40
40245;BME280;25963;42.694;23.600;2023-04-21T08:10:11;94799.19;;;21.34;49.02
40245;BME280;25963;42.694;23.600;2023-04-21T08:12:37;94782.94;;;20.92;48.77
40245;BME280;25963;42.694;23.600;2023-04-21T08:15:03;94802.94;;;20.81;47.45
40245;BME280;25963;42.694;23.600;2023-04-21T08:17:31;94799.09;;;20.68;48.35
40245;BME280;25963;42.694;23.600;2023-04-21T08:19:57;94795.59;;;21.06;53.27
40245;BME280;25963;42.694;23.600;2023-04-21T08:22:22;94797.09;;;21.12;49.96
40245;BME280;25963;42.694;23.600;2023-04-21T08:24:48;94794.19;;;20.94;52.39
40245;BME280;25963;42.694;23.600;2023-04-21T08:27:13;94789.66;;;21.60;51.70
40245;BME280;25963;42.694;23.600;2023-04-21T08:29:39;94794.13;;;21.93;46.81
40245;BME280;25963;42.694;23.600;2023-04-21T08:32:04;94796.94;;;22.15;47.32
40245;BME280;25963;42.694;23.600;2023-04-21T08:34:30;94793.19;;;21.56;47.53
40245;BME280;25963;42.694;23.600;2023-04-21T08:36:55;94795.63;;;21.38;48.07
40245;BME280;25963;42.694;23.600;2023-04-21T08:39:21;94786.47;;;20.88;48.90
40245;BME280;25963;42.694;23.600;2023-04-21T08:41:46;94785.53;;;21.49;50.94
40245;BME280;25963;42.694;23.600;2023-04-21T08:44:12;94783.06;;;21.53;51.60
40245;BME280;25963;42.694;23.600;2023-04-21T08:46:38;94782.78;;;20.22;51.58
40245;BME280;25963;42.694;23.600;2023-04-21T08:49:04;94775.31;;;21.32;53.89
40245;BME280;25963;42.694;23.600;2023-04-21T08:51:30;94776.53;;;21.86;50.03
40245;BME280;25963;42.694;23.600;2023-04-21T08:53:56;94775.16;;;22.30;47.64
40245;BME280;25963;42.694;23.600;2023-04-21T08:56:25;94777.22;;;21.92;46.65
40245;BME280;25963;42.694;23.600;2023-04-21T08:58:52;94762.03;;;22.29;47.06
40245;BME280;25963;42.694;23.600;2023-04-21T09:01:17;94727.19;;;22.10;49.65
40245;BME280;25963;42.694;23.600;2023-04-21T09:03:43;94764.31;;;21.94;44.87
40245;BME280;25963;42.694;23.600;2023-04-21T09:06:09;94769.41;;;22.23;47.55
40245;BME280;25963;42.694;23.600;2023-04-21T09:08:38;94751.69;;;21.67;44.58
40245;BME280;25963;42.694;23.600;2023-04-21T09:11:06;94757.75;;;21.73;47.23
40245;BME280;25963;42.694;23.600;2023-04-21T09:13:35;94762.28;;;21.26;44.20
40245;BME280;25963;42.694;23.600;2023-04-21T09:16:03;94758.31;;;21.23;45.81
40245;BME280;25963;42.694;23.600;2023-04-21T09:18:30;94750.53;;;21.08;46.21
40245;BME280;25963;42.694;23.600;2023-04-21T09:21:12;94752.06;;;20.95;45.16
40245;BME280;25963;42.694;23.600;2023-04-21T09:23:50;94737.19;;;21.35;52.92
40245;BME280;25963;42.694;23.600;2023-04-21T09:26:18;94750.97;;;21.61;47.22
40245;BME280;25963;42.694;23.600;2023-04-21T09:28:48;94739.59;;;21.37;44.95
40245;BME280;25963;42.694;23.600;2023-04-21T09:31:18;94740.59;;;21.41;44.28
40245;BME280;25963;42.694;23.600;2023-04-21T09:33:53;94741.13;;;21.98;47.98
40245;BME280;25963;42.694;23.600;2023-04-21T09:36:24;94732.88;;;21.95;47.87
40245;BME280;25963;42.694;23.600;2023-04-21T09:41:18;94739.81;;;21.40;46.37
40245;BME280;25963;42.694;23.600;2023-04-21T09:43:44;94739.59;;;21.37;46.54
40245;BME280;25963;42.694;23.600;2023-04-21T09:46:11;94742.84;;;21.34;44.20
40245;BME280;25963;42.694;23.600;2023-04-21T09:48:41;94730.78;;;21.64;46.96
40245;BME280;25963;42.694;23.600;2023-04-21T09:51:08;94741.22;;;22.34;45.21
40245;BME280;25963;42.694;23.600;2023-04-21T09:53:37;94716.47;;;22.24;49.24
40245;BME280;25963;42.694;23.600;2023-04-21T09:56:03;94727.16;;;22.51;50.03
40245;BME280;25963;42.694;23.600;2023-04-21T09:58:35;94741.97;;;22.49;45.06
40245;BME280;25963;42.694;23.600;2023-04-21T10:01:04;94742.13;;;22.44;41.74
40245;BME280;25963;42.694;23.600;2023-04-21T10:03:30;94720.38;;;22.18;41.49
40245;BME280;25963;42.694;23.600;2023-04-21T10:05:56;94734.69;;;21.85;40.53
40245;BME280;25963;42.694;23.600;2023-04-21T10:08:21;94739.09;;;22.59;39.57
40245;BME280;25963;42.694;23.600;2023-04-21T10:10:47;94740.75;;;22.91;42.99
40245;BME280;25963;42.694;23.600;2023-04-21T10:13:14;94725.19;;;23.02;38.43
40245;BME280;25963;42.694;23.600;2023-04-21T10:15:42;94726.25;;;22.78;43.62
40245;BME280;25963;42.694;23.600;2023-04-21T10:18:18;94707.63;;;23.27;41.24
40245;BME280;25963;42.694;23.600;2023-04-21T10:20:50;94717.13;;;23.24;43.77
40245;BME280;25963;42.694;23.600;2023-04-21T10:23:29;94711.75;;;23.24;38.70
40245;BME280;25963;42.694;23.600;2023-04-21T10:26:03;94705.06;;;23.53;39.47
40245;BME280;25963;42.694;23.600;2023-04-21T10:31:29;94696.81;;;23.81;37.34
40245;BME280;25963;42.694;23.600;2023-04-21T10:36:34;94678.50;;;24.00;37.21
40245;BME280;25963;42.694;23.600;2023-04-21T10:39:06;94675.22;;;24.29;37.33
40245;BME280;25963;42.694;23.600;2023-04-21T10:41:33;94695.06;;;23.76;37.01
40245;BME280;25963;42.694;23.600;2023-04-21T10:44:00;94692.13;;;23.01;42.81
40245;BME280;25963;42.694;23.600;2023-04-21T10:46:49;94695.72;;;22.97;38.21
40245;BME280;25963;42.694;23.600;2023-04-21T10:49:28;94708.09;;;22.25;38.06
40245;BME280;25963;42.694;23.600;2023-04-21T10:54:22;94692.53;;;22.50;41.22
40245;BME280;25963;42.694;23.600;2023-04-21T10:56:54;94698.19;;;22.48;40.52
40245;BME280;25963;42.694;23.600;2023-04-21T10:59:20;94691.81;;;21.80;41.17
40245;BME280;25963;42.694;23.600;2023-04-21T11:01:46;94695.06;;;22.32;43.56
40245;BME280;25963;42.694;23.600;2023-04-21T11:04:19;94678.00;;;21.73;38.80
40245;BME280;25963;42.694;23.600;2023-04-21T11:09:35;94680.88;;;21.91;35.66
40245;BME280;25963;42.694;23.600;2023-04-21T11:12:04;94690.63;;;21.86;35.54
40245;BME280;25963;42.694;23.600;2023-04-21T11:14:32;94689.59;;;22.24;36.25
40245;BME280;25963;42.694;23.600;2023-04-21T11:16:58;94686.09;;;22.96;38.80
40245;BME280;25963;42.694;23.600;2023-04-21T11:19:23;94676.13;;;22.74;36.33
40245;BME280;25963;42.694;23.600;2023-04-21T11:21:52;94682.41;;;23.54;43.48
40245;BME280;25963;42.694;23.600;2023-04-21T11:24:19;94674.00;;;23.47;36.85
40245;BME280;25963;42.694;23.600;2023-04-21T11:26:45;94685.63;;;22.58;34.84
40245;BME280;25963;42.694;23.600;2023-04-21T11:29:10;94688.72;;;22.73;35.83
40245;BME280;25963;42.694;23.600;2023-04-21T11:31:41;94678.47;;;21.89;33.81
40245;BME280;25963;42.694;23.600;2023-04-21T11:34:07;94686.75;;;21.51;36.54
40245;BME280;25963;42.694;23.600;2023-04-21T11:36:37;94701.38;;;21.73;34.67
40245;BME280;25963;42.694;23.600;2023-04-21T11:39:07;94697.19;;;22.08;34.28
40245;BME280;25963;42.694;23.600;2023-04-21T11:41:34;94700.19;;;22.43;33.60
40245;BME280;25963;42.694;23.600;2023-04-21T11:44:00;94697.41;;;22.70;34.60
40245;BME280;25963;42.694;23.600;2023-04-21T11:46:27;94697.41;;;22.70;36.81
40245;BME280;25963;42.694;23.600;2023-04-21T11:49:00;94711.69;;;22.07;40.05
40245;BME280;25963;42.694;23.600;2023-04-21T11:51:25;94685.63;;;21.38;39.27
40245;BME280;25963;42.694;23.600;2023-04-21T11:53:52;94711.28;;;22.14;37.88
40245;BME280;25963;42.694;23.600;2023-04-21T11:56:19;94711.81;;;21.74;39.54
40245;BME280;25963;42.694;23.600;2023-04-21T11:58:48;94687.84;;;21.36;40.58
40245;BME280;25963;42.694;23.600;2023-04-21T12:01:15;94706.56;;;21.69;36.93
40245;BME280;25963;42.694;23.600;2023-04-21T12:03:41;94682.66;;;20.93;39.87
40245;BME280;25963;42.694;23.600;2023-04-21T12:06:06;94698.31;;;21.33;41.17
40245;BME280;25963;42.694;23.600;2023-04-21T12:08:32;94691.56;;;21.35;42.98
40245;BME280;25963;42.694;23.600;2023-04-21T12:10:58;94677.59;;;21.38;40.07
40245;BME280;25963;42.694;23.600;2023-04-21T12:13:27;94699.59;;;21.96;38.77
40245;BME280;25963;42.694;23.600;2023-04-21T12:15:52;94695.16;;;22.27;37.28
40245;BME280;25963;42.694;23.600;2023-04-21T12:18:18;94688.84;;;22.91;38.27
40245;BME280;25963;42.694;23.600;2023-04-21T12:20:51;94689.22;;;22.53;38.52
40245;BME280;25963;42.694;23.600;2023-04-21T12:23:17;94684.25;;;23.05;37.37
40245;BME280;25963;42.694;23.600;2023-04-21T12:25:44;94695.06;;;22.32;39.00
40245;BME280;25963;42.694;23.600;2023-04-21T12:28:12;94691.69;;;22.13;34.28
40245;BME280;25963;42.694;23.600;2023-04-21T12:30:39;94682.19;;;22.43;37.06
40245;BME280;25963;42.694;23.600;2023-04-21T12:33:05;94679.59;;;22.02;35.42
40245;BME280;25963;42.694;23.600;2023-04-21T12:35:31;94687.56;;;21.79;34.65
40245;BME280;25963;42.694;23.600;2023-04-21T12:37:57;94686.66;;;21.70;35.98
40245;BME280;25963;42.694;23.600;2023-04-21T12:40:23;94689.34;;;21.42;35.24
40245;BME280;25963;42.694;23.600;2023-04-21T12:42:48;94693.81;;;21.88;35.86
40245;BME280;25963;42.694;23.600;2023-04-21T12:45:13;94698.38;;;21.74;36.08
40245;BME280;25963;42.694;23.600;2023-04-21T12:47:39;94690.13;;;21.71;37.09
40245;BME280;25963;42.694;23.600;2023-04-21T12:50:07;94693.81;;;22.02;36.74
40245;BME280;25963;42.694;23.600;2023-04-21T12:52:32;94691.94;;;22.17;35.59
40245;BME280;25963;42.694;23.600;2023-04-21T12:54:58;94689.50;;;22.29;37.26
40245;BME280;25963;42.694;23.600;2023-04-21T12:57:23;94694.09;;;22.51;35.37
40245;BME280;25963;42.694;23.600;2023-04-21T12:59:49;94694.41;;;21.85;35.28
40245;BME280;25963;42.694;23.600;2023-04-21T13:02:14;94690.44;;;21.69;36.09